sensor_id;sensor_type;location;lat;lon;timestamp;pressure;altitude;pressure_sealevel;temperature
12061;BMP180;6091;51.432;6.880;2022-09-01T00:00:05;101314.00;;;29.80
12061;BMP180;6091;51.432;6.880;2022-09-01T00:02:33;101309.00;;;29.80
12061;BMP180;6091;51.432;6.880;2022-09-01T00:05:01;101314.00;;;29.70
12061;BMP180;6091;51.432;6.880;2022-09-01T00:07:30;101304.00;;;29.70
12061;BMP180;6091;51.432;6.880;2022-09-01T00:10:05;101315.00;;;29.70
12061;BMP180;6091;51.432;6.880;2022-09-01T00:12:33;101312.00;;;29.70
12061;BMP180;6091;51.432;6.880;2022-09-01T00:15:00;101311.00;;;29.70
12061;BMP180;6091;51.432;6.880;2022-09-01T00:17:27;101319.00;;;29.70
12061;BMP180;6091;51.432;6.880;2022-09-01T00:19:56;101316.00;;;29.70
12061;BMP180;6091;51.432;6.880;2022-09-01T00:22:23;101312.00;;;29.70
12061;BMP180;6091;51.432;6.880;2022-09-01T00:24:50;101308.00;;;29.70
12061;BMP180;6091;51.432;6.880;2022-09-01T00:27:17;101315.00;;;29.70
12061;BMP180;6091;51.432;6.880;2022-09-01T00:29:45;101309.00;;;29.70
12061;BMP180;6091;51.432;6.880;2022-09-01T00:32:12;101323.00;;;29.70
12061;BMP180;6091;51.432;6.880;2022-09-01T00:34:39;101315.00;;;29.60
12061;BMP180;6091;51.432;6.880;2022-09-01T00:37:07;101311.00;;;29.60
12061;BMP180;6091;51.432;6.880;2022-09-01T00:39:34;101314.00;;;29.60
12061;BMP180;6091;51.432;6.880;2022-09-01T00:42:01;101313.00;;;29.60
12061;BMP180;6091;51.432;6.880;2022-09-01T00:44:29;101315.00;;;29.60
12061;BMP180;6091;51.432;6.880;2022-09-01T00:46:58;101315.00;;;29.60
12061;BMP180;6091;51.432;6.880;2022-09-01T00:49:48;101320.00;;;29.50
12061;BMP180;6091;51.432;6.880;2022-09-01T00:52:42;101315.00;;;29.50
12061;BMP180;6091;51.432;6.880;2022-09-01T00:55:21;101313.00;;;29.50
12061;BMP180;6091;51.432;6.880;2022-09-01T00:57:49;101306.00;;;29.50
12061;BMP180;6091;51.432;6.880;2022-09-01T01:00:21;101316.00;;;29.50
12061;BMP180;6091;51.432;6.880;2022-09-01T01:02:50;101310.00;;;29.50
12061;BMP180;6091;51.432;6.880;2022-09-01T01:05:32;101308.00;;;29.50
12061;BMP180;6091;51.432;6.880;2022-09-01T01:08:02;101306.00;;;29.50
12061;BMP180;6091;51.432;6.880;2022-09-01T01:10:34;101310.00;;;29.50
12061;BMP180;6091;51.432;6.880;2022-09-01T01:13:15;101308.00;;;29.50
12061;BMP180;6091;51.432;6.880;2022-09-01T01:15:43;101300.00;;;29.40
12061;BMP180;6091;51.432;6.880;2022-09-01T01:18:15;101304.00;;;29.40
12061;BMP180;6091;51.432;6.880;2022-09-01T01:21:07;101303.00;;;29.40
12061;BMP180;6091;51.432;6.880;2022-09-01T01:24:49;101300.00;;;29.40
12061;BMP180;6091;51.432;6.880;2022-09-01T01:26:53;101301.00;;;29.40
12061;BMP180;6091;51.432;6.880;2022-09-01T01:29:31;101296.00;;;29.40
12061;BMP180;6091;51.432;6.880;2022-09-01T01:31:58;101301.00;;;29.40
12061;BMP180;6091;51.432;6.880;2022-09-01T01:34:26;101303.00;;;29.40
12061;BMP180;6091;51.432;6.880;2022-09-01T01:36:54;101299.00;;;29.40
12061;BMP180;6091;51.432;6.880;2022-09-01T01:39:26;101299.00;;;29.50
12061;BMP180;6091;51.432;6.880;2022-09-01T01:41:55;101305.00;;;29.50
12061;BMP180;6091;51.432;6.880;2022-09-01T01:44:26;101309.00;;;29.50
12061;BMP180;6091;51.432;6.880;2022-09-01T01:46:56;101309.00;;;29.50
12061;BMP180;6091;51.432;6.880;2022-09-01T01:49:27;101313.00;;;29.50
12061;BMP180;6091;51.432;6.880;2022-09-01T01:51:54;101314.00;;;29.40
12061;BMP180;6091;51.432;6.880;2022-09-01T01:54:24;101314.00;;;29.40
12061;BMP180;6091;51.432;6.880;2022-09-01T01:56:52;101315.00;;;29.40
12061;BMP180;6091;51.432;6.880;2022-09-01T01:59:20;101319.00;;;29.40
12061;BMP180;6091;51.432;6.880;2022-09-01T02:01:50;101323.00;;;29.40
12061;BMP180;6091;51.432;6.880;2022-09-01T02:04:19;101325.00;;;29.40
12061;BMP180;6091;51.432;6.880;2022-09-01T02:06:48;101317.00;;;29.40
12061;BMP180;6091;51.432;6.880;2022-09-01T02:09:18;101317.00;;;29.40
12061;BMP180;6091;51.432;6.880;2022-09-01T02:11:45;101316.00;;;29.40
12061;BMP180;6091;51.432;6.880;2022-09-01T02:14:13;101320.00;;;29.30
12061;BMP180;6091;51.432;6.880;2022-09-01T02:16:46;101319.00;;;29.40
12061;BMP180;6091;51.432;6.880;2022-09-01T02:19:13;101320.00;;;29.40
12061;BMP180;6091;51.432;6.880;2022-09-01T02:21:40;101316.00;;;29.30
12061;BMP180;6091;51.432;6.880;2022-09-01T02:24:10;101320.00;;;29.30
12061;BMP180;6091;51.432;6.880;2022-09-01T02:26:42;101317.00;;;29.30
12061;BMP180;6091;51.432;6.880;2022-09-01T02:29:16;101320.00;;;29.30
12061;BMP180;6091;51.432;6.880;2022-09-01T02:31:50;101320.00;;;29.30
12061;BMP180;6091;51.432;6.880;2022-09-01T02:34:21;101320.00;;;29.30
12061;BMP180;6091;51.432;6.880;2022-09-01T02:36:52;101324.00;;;29.30
12061;BMP180;6091;51.432;6.880;2022-09-01T02:39:30;101319.00;;;29.30
12061;BMP180;6091;51.432;6.880;2022-09-01T02:42:00;101317.00;;;29.30
12061;BMP180;6091;51.432;6.880;2022-09-01T02:44:28;101312.00;;;29.30
12061;BMP180;6091;51.432;6.880;2022-09-01T02:46:57;101323.00;;;29.20
12061;BMP180;6091;51.432;6.880;2022-09-01T02:49:25;101318.00;;;29.20
12061;BMP180;6091;51.432;6.880;2022-09-01T02:51:58;101320.00;;;29.20
12061;BMP180;6091;51.432;6.880;2022-09-01T02:54:30;101315.00;;;29.20
12061;BMP180;6091;51.432;6.880;2022-09-01T02:56:58;101318.00;;;29.20
12061;BMP180;6091;51.432;6.880;2022-09-01T02:59:27;101315.00;;;29.10
12061;BMP180;6091;51.432;6.880;2022-09-01T03:01:55;101310.00;;;29.10
12061;BMP180;6091;51.432;6.880;2022-09-01T03:04:23;101316.00;;;29.10
12061;BMP180;6091;51.432;6.880;2022-09-01T03:06:52;101312.00;;;29.10
12061;BMP180;6091;51.432;6.880;2022-09-01T03:09:20;101308.00;;;29.10
12061;BMP180;6091;51.432;6.880;2022-09-01T03:11:51;101313.00;;;29.10
12061;BMP180;6091;51.432;6.880;2022-09-01T03:14:20;101312.00;;;29.10
12061;BMP180;6091;51.432;6.880;2022-09-01T03:16:49;101317.00;;;29.10
12061;BMP180;6091;51.432;6.880;2022-09-01T03:19:17;101310.00;;;29.10
12061;BMP180;6091;51.432;6.880;2022-09-01T03:21:45;101319.00;;;29.10
12061;BMP180;6091;51.432;6.880;2022-09-01T03:24:16;101317.00;;;29.10
12061;BMP180;6091;51.432;6.880;2022-09-01T03:26:45;101313.00;;;29.10
12061;BMP180;6091;51.432;6.880;2022-09-01T03:29:17;101313.00;;;29.10
12061;BMP180;6091;51.432;6.880;2022-09-01T03:31:44;101314.00;;;29.10
12061;BMP180;6091;51.432;6.880;2022-09-01T03:34:12;101327.00;;;29.10
12061;BMP180;6091;51.432;6.880;2022-09-01T03:36:42;101323.00;;;29.10
12061;BMP180;6091;51.432;6.880;2022-09-01T03:39:17;101321.00;;;29.10
12061;BMP180;6091;51.432;6.880;2022-09-01T03:41:45;101319.00;;;29.10
12061;BMP180;6091;51.432;6.880;2022-09-01T03:44:13;101324.00;;;29.10
12061;BMP180;6091;51.432;6.880;2022-09-01T03:46:43;101321.00;;;29.10
12061;BMP180;6091;51.432;6.880;2022-09-01T03:49:11;101325.00;;;29.10
12061;BMP180;6091;51.432;6.880;2022-09-01T03:51:43;101318.00;;;29.10
12061;BMP180;6091;51.432;6.880;2022-09-01T03:54:11;101315.00;;;29.10
12061;BMP180;6091;51.432;6.880;2022-09-01T03:56:39;101318.00;;;29.10
12061;BMP180;6091;51.432;6.880;2022-09-01T03:59:08;101318.00;;;29.10
12061;BMP180;6091;51.432;6.880;2022-09-01T04:01:43;101313.00;;;29.00
12061;BMP180;6091;51.432;6.880;2022-09-01T04:04:11;101313.00;;;29.00
12061;BMP180;6091;51.432;6.880;2022-09-01T04:06:42;101312.00;;;29.10
12061;BMP180;6091;51.432;6.880;2022-09-01T04:09:10;101307.00;;;29.00
12061;BMP180;6091;51.432;6.880;2022-09-01T04:11:38;101302.00;;;29.00
12061;BMP180;6091;51.432;6.880;2022-09-01T04:14:12;101305.00;;;29.00
12061;BMP180;6091;51.432;6.880;2022-09-01T04:16:39;101304.00;;;29.00
12061;BMP180;6091;51.432;6.880;2022-09-01T04:19:26;101313.00;;;29.00
12061;BMP180;6091;51.432;6.880;2022-09-01T04:21:59;101303.00;;;29.00
12061;BMP180;6091;51.432;6.880;2022-09-01T04:24:30;101313.00;;;29.00
12061;BMP180;6091;51.432;6.880;2022-09-01T04:27:00;101311.00;;;29.00
12061;BMP180;6091;51.432;6.880;2022-09-01T04:29:29;101309.00;;;29.00
12061;BMP180;6091;51.432;6.880;2022-09-01T04:32:08;101318.00;;;29.00
12061;BMP180;6091;51.432;6.880;2022-09-01T04:34:38;101310.00;;;29.00
12061;BMP180;6091;51.432;6.880;2022-09-01T04:37:13;101312.00;;;29.00
12061;BMP180;6091;51.432;6.880;2022-09-01T04:39:41;101314.00;;;29.00
12061;BMP180;6091;51.432;6.880;2022-09-01T04:42:20;101306.00;;;29.00
12061;BMP180;6091;51.432;6.880;2022-09-01T04:44:51;101315.00;;;29.00
12061;BMP180;6091;51.432;6.880;2022-09-01T04:47:20;101306.00;;;29.00
12061;BMP180;6091;51.432;6.880;2022-09-01T04:50:02;101306.00;;;29.00
12061;BMP180;6091;51.432;6.880;2022-09-01T04:52:31;101312.00;;;28.90
12061;BMP180;6091;51.432;6.880;2022-09-01T04:54:58;101309.00;;;28.90
12061;BMP180;6091;51.432;6.880;2022-09-01T04:57:25;101307.00;;;28.90
12061;BMP180;6091;51.432;6.880;2022-09-01T04:59:54;101314.00;;;29.00
12061;BMP180;6091;51.432;6.880;2022-09-01T05:02:23;101312.00;;;28.90
12061;BMP180;6091;51.432;6.880;2022-09-01T05:04:53;101318.00;;;28.90
12061;BMP180;6091;51.432;6.880;2022-09-01T05:07:20;101316.00;;;28.90
12061;BMP180;6091;51.432;6.880;2022-09-01T05:09:51;101316.00;;;28.90
12061;BMP180;6091;51.432;6.880;2022-09-01T05:12:27;101324.00;;;28.90
12061;BMP180;6091;51.432;6.880;2022-09-01T05:14:55;101324.00;;;28.90
12061;BMP180;6091;51.432;6.880;2022-09-01T05:17:22;101331.00;;;28.90
12061;BMP180;6091;51.432;6.880;2022-09-01T05:19:51;101327.00;;;28.90
12061;BMP180;6091;51.432;6.880;2022-09-01T05:22:20;101316.00;;;28.80
12061;BMP180;6091;51.432;6.880;2022-09-01T05:24:48;101319.00;;;28.80
12061;BMP180;6091;51.432;6.880;2022-09-01T05:27:21;101315.00;;;28.80
12061;BMP180;6091;51.432;6.880;2022-09-01T05:29:48;101322.00;;;28.80
12061;BMP180;6091;51.432;6.880;2022-09-01T05:32:16;101321.00;;;28.80
12061;BMP180;6091;51.432;6.880;2022-09-01T05:34:43;101316.00;;;28.80
12061;BMP180;6091;51.432;6.880;2022-09-01T05:37:11;101323.00;;;28.80
12061;BMP180;6091;51.432;6.880;2022-09-01T05:39:43;101317.00;;;28.80
12061;BMP180;6091;51.432;6.880;2022-09-01T05:42:10;101325.00;;;28.80
12061;BMP180;6091;51.432;6.880;2022-09-01T05:44:40;101320.00;;;28.80
12061;BMP180;6091;51.432;6.880;2022-09-01T05:47:11;101322.00;;;28.80
12061;BMP180;6091;51.432;6.880;2022-09-01T05:49:47;101328.00;;;28.90
12061;BMP180;6091;51.432;6.880;2022-09-01T05:52:15;101325.00;;;28.90
12061;BMP180;6091;51.432;6.880;2022-09-01T05:54:42;101333.00;;;28.90
12061;BMP180;6091;51.432;6.880;2022-09-01T05:57:13;101333.00;;;28.90
12061;BMP180;6091;51.432;6.880;2022-09-01T06:00:00;101328.00;;;29.30
12061;BMP180;6091;51.432;6.880;2022-09-01T06:02:27;101328.00;;;29.10
12061;BMP180;6091;51.432;6.880;2022-09-01T06:04:56;101326.00;;;29.00
12061;BMP180;6091;51.432;6.880;2022-09-01T06:07:25;101334.00;;;29.00
12061;BMP180;6091;51.432;6.880;2022-09-01T06:09:54;101336.00;;;29.00
12061;BMP180;6091;51.432;6.880;2022-09-01T06:12:21;101333.00;;;29.00
12061;BMP180;6091;51.432;6.880;2022-09-01T06:14:51;101336.00;;;29.00
12061;BMP180;6091;51.432;6.880;2022-09-01T06:17:25;101334.00;;;29.00
12061;BMP180;6091;51.432;6.880;2022-09-01T06:19:55;101338.00;;;29.00
12061;BMP180;6091;51.432;6.880;2022-09-01T06:22:25;101339.00;;;29.00
12061;BMP180;6091;51.432;6.880;2022-09-01T06:24:53;101336.00;;;29.00
12061;BMP180;6091;51.432;6.880;2022-09-01T06:27:27;101348.00;;;29.00
12061;BMP180;6091;51.432;6.880;2022-09-01T06:29:55;101342.00;;;29.00
12061;BMP180;6091;51.432;6.880;2022-09-01T06:32:24;101339.00;;;29.00
12061;BMP180;6091;51.432;6.880;2022-09-01T06:34:53;101342.00;;;29.00
12061;BMP180;6091;51.432;6.880;2022-09-01T06:37:20;101348.00;;;29.00
12061;BMP180;6091;51.432;6.880;2022-09-01T06:39:49;101344.00;;;29.10
12061;BMP180;6091;51.432;6.880;2022-09-01T06:42:17;101348.00;;;29.00
12061;BMP180;6091;51.432;6.880;2022-09-01T06:44:45;101348.00;;;29.10
12061;BMP180;6091;51.432;6.880;2022-09-01T06:47:13;101340.00;;;29.10
12061;BMP180;6091;51.432;6.880;2022-09-01T06:49:41;101349.00;;;29.10
12061;BMP180;6091;51.432;6.880;2022-09-01T06:52:09;101342.00;;;29.10
12061;BMP180;6091;51.432;6.880;2022-09-01T06:54:37;101342.00;;;29.10
12061;BMP180;6091;51.432;6.880;2022-09-01T06:57:05;101344.00;;;29.10
12061;BMP180;6091;51.432;6.880;2022-09-01T06:59:53;101347.00;;;29.10
12061;BMP180;6091;51.432;6.880;2022-09-01T07:02:21;101343.00;;;29.20
12061;BMP180;6091;51.432;6.880;2022-09-01T07:04:53;101342.00;;;29.10
12061;BMP180;6091;51.432;6.880;2022-09-01T07:07:21;101348.00;;;29.20
12061;BMP180;6091;51.432;6.880;2022-09-01T07:10:09;101348.00;;;29.20
12061;BMP180;6091;51.432;6.880;2022-09-01T07:12:55;101340.00;;;29.20
12061;BMP180;6091;51.432;6.880;2022-09-01T07:15:41;101358.00;;;29.30
12061;BMP180;6091;51.432;6.880;2022-09-01T07:18:30;101352.00;;;29.30
12061;BMP180;6091;51.432;6.880;2022-09-01T07:20:57;101349.00;;;29.30
12061;BMP180;6091;51.432;6.880;2022-09-01T07:23:46;101350.00;;;29.30
12061;BMP180;6091;51.432;6.880;2022-09-01T07:26:34;101350.00;;;29.40
12061;BMP180;6091;51.432;6.880;2022-09-01T07:29:05;101345.00;;;29.30
12061;BMP180;6091;51.432;6.880;2022-09-01T07:31:42;101349.00;;;29.30
12061;BMP180;6091;51.432;6.880;2022-09-01T07:34:29;101357.00;;;29.30
12061;BMP180;6091;51.432;6.880;2022-09-01T07:37:05;101345.00;;;29.20
12061;BMP180;6091;51.432;6.880;2022-09-01T07:39:52;101341.00;;;29.20
12061;BMP180;6091;51.432;6.880;2022-09-01T07:42:21;101343.00;;;29.20
12061;BMP180;6091;51.432;6.880;2022-09-01T07:45:11;101346.00;;;29.20
12061;BMP180;6091;51.432;6.880;2022-09-01T07:47:56;101342.00;;;29.10
12061;BMP180;6091;51.432;6.880;2022-09-01T07:50:26;101337.00;;;29.10
12061;BMP180;6091;51.432;6.880;2022-09-01T07:53:28;101335.00;;;29.10
12061;BMP180;6091;51.432;6.880;2022-09-01T07:56:08;101335.00;;;29.10
12061;BMP180;6091;51.432;6.880;2022-09-01T07:58:38;101345.00;;;29.10
12061;BMP180;6091;51.432;6.880;2022-09-01T08:01:10;101339.00;;;29.10
12061;BMP180;6091;51.432;6.880;2022-09-01T08:03:38;101333.00;;;29.20
12061;BMP180;6091;51.432;6.880;2022-09-01T08:06:10;101336.00;;;29.20
12061;BMP180;6091;51.432;6.880;2022-09-01T08:08:39;101346.00;;;29.20
12061;BMP180;6091;51.432;6.880;2022-09-01T08:11:07;101358.00;;;29.30
12061;BMP180;6091;51.432;6.880;2022-09-01T08:13:36;101346.00;;;29.30
12061;BMP180;6091;51.432;6.880;2022-09-01T08:16:09;101356.00;;;29.30
12061;BMP180;6091;51.432;6.880;2022-09-01T08:18:45;101352.00;;;29.30
12061;BMP180;6091;51.432;6.880;2022-09-01T08:21:19;101346.00;;;29.40
12061;BMP180;6091;51.432;6.880;2022-09-01T08:23:50;101350.00;;;29.40
12061;BMP180;6091;51.432;6.880;2022-09-01T08:26:20;101356.00;;;29.40
12061;BMP180;6091;51.432;6.880;2022-09-01T08:28:48;101355.00;;;29.40
12061;BMP180;6091;51.432;6.880;2022-09-01T08:31:23;101352.00;;;29.40
12061;BMP180;6091;51.432;6.880;2022-09-01T08:33:51;101357.00;;;29.40
12061;BMP180;6091;51.432;6.880;2022-09-01T08:36:18;101358.00;;;29.50
12061;BMP180;6091;51.432;6.880;2022-09-01T08:38:51;101352.00;;;29.50
12061;BMP180;6091;51.432;6.880;2022-09-01T08:41:44;101350.00;;;29.50
12061;BMP180;6091;51.432;6.880;2022-09-01T08:47:29;101345.00;;;29.50
12061;BMP180;6091;51.432;6.880;2022-09-01T08:50:17;101343.00;;;29.50
12061;BMP180;6091;51.432;6.880;2022-09-01T08:55:44;101346.00;;;29.50
12061;BMP180;6091;51.432;6.880;2022-09-01T08:58:16;101348.00;;;29.60
12061;BMP180;6091;51.432;6.880;2022-09-01T09:00:54;101347.00;;;29.60
12061;BMP180;6091;51.432;6.880;2022-09-01T09:06:20;101340.00;;;29.60
12061;BMP180;6091;51.432;6.880;2022-09-01T09:08:56;101346.00;;;29.60
12061;BMP180;6091;51.432;6.880;2022-09-01T09:15:14;101336.00;;;29.60
12061;BMP180;6091;51.432;6.880;2022-09-01T09:17:52;101330.00;;;29.60
12061;BMP180;6091;51.432;6.880;2022-09-01T09:20:28;101323.00;;;29.60
12061;BMP180;6091;51.432;6.880;2022-09-01T09:22:55;101333.00;;;29.60
12061;BMP180;6091;51.432;6.880;2022-09-01T09:25:25;101323.00;;;29.70
12061;BMP180;6091;51.432;6.880;2022-09-01T09:27:55;101327.00;;;29.70
12061;BMP180;6091;51.432;6.880;2022-09-01T09:30:30;101335.00;;;29.70
12061;BMP180;6091;51.432;6.880;2022-09-01T09:33:00;101329.00;;;29.70
12061;BMP180;6091;51.432;6.880;2022-09-01T09:35:50;101323.00;;;29.70
12061;BMP180;6091;51.432;6.880;2022-09-01T09:38:24;101313.00;;;29.70
12061;BMP180;6091;51.432;6.880;2022-09-01T09:43:57;101320.00;;;29.70
12061;BMP180;6091;51.432;6.880;2022-09-01T09:55:01;101303.00;;;29.80
12061;BMP180;6091;51.432;6.880;2022-09-01T09:57:37;101302.00;;;29.80
12061;BMP180;6091;51.432;6.880;2022-09-01T10:00:25;101305.00;;;29.80
12061;BMP180;6091;51.432;6.880;2022-09-01T10:03:12;101298.00;;;29.80
12061;BMP180;6091;51.432;6.880;2022-09-01T10:05:48;101285.00;;;29.80
12061;BMP180;6091;51.432;6.880;2022-09-01T10:10:54;101274.00;;;29.80
12061;BMP180;6091;51.432;6.880;2022-09-01T10:13:26;101285.00;;;29.90
12061;BMP180;6091;51.432;6.880;2022-09-01T10:16:02;101282.00;;;29.90
12061;BMP180;6091;51.432;6.880;2022-09-01T10:18:43;101279.00;;;29.90
12061;BMP180;6091;51.432;6.880;2022-09-01T10:21:43;101272.00;;;29.90
12061;BMP180;6091;51.432;6.880;2022-09-01T10:24:34;101275.00;;;30.00
12061;BMP180;6091;51.432;6.880;2022-09-01T10:27:24;101268.00;;;30.00
12061;BMP180;6091;51.432;6.880;2022-09-01T10:30:06;101268.00;;;30.10
12061;BMP180;6091;51.432;6.880;2022-09-01T10:32:59;101273.00;;;30.10
12061;BMP180;6091;51.432;6.880;2022-09-01T10:35:45;101274.00;;;30.20
12061;BMP180;6091;51.432;6.880;2022-09-01T10:38:25;101275.00;;;30.20
12061;BMP180;6091;51.432;6.880;2022-09-01T10:40:56;101263.00;;;30.20
12061;BMP180;6091;51.432;6.880;2022-09-01T10:43:50;101266.00;;;30.20
12061;BMP180;6091;51.432;6.880;2022-09-01T10:48:55;101250.00;;;30.30
12061;BMP180;6091;51.432;6.880;2022-09-01T10:59:53;101259.00;;;30.70
12061;BMP180;6091;51.432;6.880;2022-09-01T11:02:24;101262.00;;;30.80
12061;BMP180;6091;51.432;6.880;2022-09-01T11:07:33;101257.00;;;31.20
12061;BMP180;6091;51.432;6.880;2022-09-01T11:10:50;101262.00;;;31.40
12061;BMP180;6091;51.432;6.880;2022-09-01T11:13:35;101257.00;;;31.60
12061;BMP180;6091;51.432;6.880;2022-09-01T11:25:40;101256.00;;;32.40
12061;BMP180;6091;51.432;6.880;2022-09-01T11:31:08;101245.00;;;32.80
12061;BMP180;6091;51.432;6.880;2022-09-01T11:34:12;101255.00;;;33.00
12061;BMP180;6091;51.432;6.880;2022-09-01T11:42:18;101250.00;;;33.60
12061;BMP180;6091;51.432;6.880;2022-09-01T11:47:57;101244.00;;;34.00
12061;BMP180;6091;51.432;6.880;2022-09-01T11:50:33;101243.00;;;34.10
12061;BMP180;6091;51.432;6.880;2022-09-01T11:53:12;101233.00;;;34.30
12061;BMP180;6091;51.432;6.880;2022-09-01T11:55:51;101238.00;;;34.40
12061;BMP180;6091;51.432;6.880;2022-09-01T11:58:29;101239.00;;;34.50
12061;BMP180;6091;51.432;6.880;2022-09-01T12:03:57;101243.00;;;34.70
12061;BMP180;6091;51.432;6.880;2022-09-01T12:06:28;101241.00;;;34.80
12061;BMP180;6091;51.432;6.880;2022-09-01T12:09:03;101228.00;;;34.90
12061;BMP180;6091;51.432;6.880;2022-09-01T12:11:35;101231.00;;;35.00
12061;BMP180;6091;51.432;6.880;2022-09-01T12:14:07;101233.00;;;35.10
12061;BMP180;6091;51.432;6.880;2022-09-01T12:16:40;101224.00;;;35.20
12061;BMP180;6091;51.432;6.880;2022-09-01T12:19:25;101225.00;;;35.20
12061;BMP180;6091;51.432;6.880;2022-09-01T12:22:06;101219.00;;;35.30
12061;BMP180;6091;51.432;6.880;2022-09-01T12:24:45;101214.00;;;35.30
12061;BMP180;6091;51.432;6.880;2022-09-01T12:27:13;101214.00;;;35.40
12061;BMP180;6091;51.432;6.880;2022-09-01T12:29:44;101214.00;;;35.40
12061;BMP180;6091;51.432;6.880;2022-09-01T12:32:13;101203.00;;;35.50
12061;BMP180;6091;51.432;6.880;2022-09-01T12:34:59;101200.00;;;35.60
12061;BMP180;6091;51.432;6.880;2022-09-01T12:37:28;101201.00;;;35.60
12061;BMP180;6091;51.432;6.880;2022-09-01T12:39:58;101204.00;;;35.70
12061;BMP180;6091;51.432;6.880;2022-09-01T12:42:33;101204.00;;;35.80
12061;BMP180;6091;51.432;6.880;2022-09-01T12:45:10;101199.00;;;35.80
12061;BMP180;6091;51.432;6.880;2022-09-01T12:53:03;101196.00;;;35.80
12061;BMP180;6091;51.432;6.880;2022-09-01T12:55:39;101194.00;;;35.80
12061;BMP180;6091;51.432;6.880;2022-09-01T12:58:22;101193.00;;;35.90
12061;BMP180;6091;51.432;6.880;2022-09-01T13:05:30;101194.00;;;35.60
12061;BMP180;6091;51.432;6.880;2022-09-01T13:08:19;101198.00;;;35.40
12061;BMP180;6091;51.432;6.880;2022-09-01T13:10:54;101192.00;;;35.20
12061;BMP180;6091;51.432;6.880;2022-09-01T13:13:24;101182.00;;;35.10
12061;BMP180;6091;51.432;6.880;2022-09-01T13:15:57;101185.00;;;35.10
12061;BMP180;6091;51.432;6.880;2022-09-01T13:18:28;101190.00;;;35.00
12061;BMP180;6091;51.432;6.880;2022-09-01T13:20:56;101179.00;;;35.00
12061;BMP180;6091;51.432;6.880;2022-09-01T13:23:24;101177.00;;;34.80
12061;BMP180;6091;51.432;6.880;2022-09-01T13:25:51;101164.00;;;34.60
12061;BMP180;6091;51.432;6.880;2022-09-01T13:28:19;101163.00;;;34.50
12061;BMP180;6091;51.432;6.880;2022-09-01T13:31:02;101155.00;;;34.30
12061;BMP180;6091;51.432;6.880;2022-09-01T13:33:52;101149.00;;;34.10
12061;BMP180;6091;51.432;6.880;2022-09-01T13:36:41;101159.00;;;33.90
12061;BMP180;6091;51.432;6.880;2022-09-01T13:39:14;101148.00;;;33.80
12061;BMP180;6091;51.432;6.880;2022-09-01T13:41:42;101148.00;;;33.70
12061;BMP180;6091;51.432;6.880;2022-09-01T13:44:09;101135.00;;;33.60
12061;BMP180;6091;51.432;6.880;2022-09-01T13:46:37;101141.00;;;33.50
12061;BMP180;6091;51.432;6.880;2022-09-01T13:49:24;101134.00;;;33.40
12061;BMP180;6091;51.432;6.880;2022-09-01T13:52:11;101124.00;;;33.30
12061;BMP180;6091;51.432;6.880;2022-09-01T13:54:39;101123.00;;;33.20
12061;BMP180;6091;51.432;6.880;2022-09-01T13:57:06;101138.00;;;33.10
12061;BMP180;6091;51.432;6.880;2022-09-01T13:59:33;101134.00;;;33.00
12061;BMP180;6091;51.432;6.880;2022-09-01T14:02:00;101130.00;;;33.00
12061;BMP180;6091;51.432;6.880;2022-09-01T14:04:28;101129.00;;;32.90
12061;BMP180;6091;51.432;6.880;2022-09-01T14:06:55;101123.00;;;32.80
12061;BMP180;6091;51.432;6.880;2022-09-01T14:09:24;101124.00;;;32.80
12061;BMP180;6091;51.432;6.880;2022-09-01T14:11:58;101116.00;;;32.70
12061;BMP180;6091;51.432;6.880;2022-09-01T14:14:28;101122.00;;;32.60
12061;BMP180;6091;51.432;6.880;2022-09-01T14:17:15;101123.00;;;32.50
12061;BMP180;6091;51.432;6.880;2022-09-01T14:19:42;101118.00;;;32.50
12061;BMP180;6091;51.432;6.880;2022-09-01T14:22:12;101110.00;;;32.40
12061;BMP180;6091;51.432;6.880;2022-09-01T14:24:39;101117.00;;;32.40
12061;BMP180;6091;51.432;6.880;2022-09-01T14:27:56;101110.00;;;32.30
12061;BMP180;6091;51.432;6.880;2022-09-01T14:30:50;101109.00;;;32.20
12061;BMP180;6091;51.432;6.880;2022-09-01T14:33:17;101107.00;;;32.20
12061;BMP180;6091;51.432;6.880;2022-09-01T14:35:46;101114.00;;;32.20
12061;BMP180;6091;51.432;6.880;2022-09-01T14:38:17;101110.00;;;32.20
12061;BMP180;6091;51.432;6.880;2022-09-01T14:40:46;101104.00;;;32.20
12061;BMP180;6091;51.432;6.880;2022-09-01T14:43:15;101099.00;;;32.10
12061;BMP180;6091;51.432;6.880;2022-09-01T14:45:44;101101.00;;;32.10
12061;BMP180;6091;51.432;6.880;2022-09-01T14:48:17;101105.00;;;32.10
12061;BMP180;6091;51.432;6.880;2022-09-01T14:50:47;101108.00;;;32.10
12061;BMP180;6091;51.432;6.880;2022-09-01T14:53:14;101091.00;;;32.10
12061;BMP180;6091;51.432;6.880;2022-09-01T14:55:42;101049.00;;;32.00
12061;BMP180;6091;51.432;6.880;2022-09-01T14:58:10;101085.00;;;32.00
12061;BMP180;6091;51.432;6.880;2022-09-01T15:00:37;101085.00;;;32.00
12061;BMP180;6091;51.432;6.880;2022-09-01T15:03:08;101084.00;;;32.00
12061;BMP180;6091;51.432;6.880;2022-09-01T15:05:36;101075.00;;;32.00
12061;BMP180;6091;51.432;6.880;2022-09-01T15:08:07;101084.00;;;32.00
12061;BMP180;6091;51.432;6.880;2022-09-01T15:10:39;101079.00;;;32.00
12061;BMP180;6091;51.432;6.880;2022-09-01T15:13:07;101084.00;;;32.00
12061;BMP180;6091;51.432;6.880;2022-09-01T15:15:34;101079.00;;;32.00
12061;BMP180;6091;51.432;6.880;2022-09-01T15:18:01;101077.00;;;32.00
12061;BMP180;6091;51.432;6.880;2022-09-01T15:20:29;101069.00;;;32.10
12061;BMP180;6091;51.432;6.880;2022-09-01T15:23:21;101079.00;;;32.10
12061;BMP180;6091;51.432;6.880;2022-09-01T15:25:53;101080.00;;;32.00
12061;BMP180;6091;51.432;6.880;2022-09-01T15:28:21;101076.00;;;32.00
12061;BMP180;6091;51.432;6.880;2022-09-01T15:30:52;101064.00;;;32.00
12061;BMP180;6091;51.432;6.880;2022-09-01T15:33:20;101063.00;;;32.00
12061;BMP180;6091;51.432;6.880;2022-09-01T15:35:47;101065.00;;;32.10
12061;BMP180;6091;51.432;6.880;2022-09-01T15:38:15;101060.00;;;32.10
12061;BMP180;6091;51.432;6.880;2022-09-01T15:40:47;101061.00;;;32.20
12061;BMP180;6091;51.432;6.880;2022-09-01T15:43:28;101063.00;;;32.20
12061;BMP180;6091;51.432;6.880;2022-09-01T15:45:57;101060.00;;;32.30
12061;BMP180;6091;51.432;6.880;2022-09-01T15:48:26;101064.00;;;32.30
12061;BMP180;6091;51.432;6.880;2022-09-01T15:53:56;101063.00;;;32.40
12061;BMP180;6091;51.432;6.880;2022-09-01T15:56:25;101060.00;;;32.40
12061;BMP180;6091;51.432;6.880;2022-09-01T15:58:53;101057.00;;;32.20